sensor_id;sensor_type;location;lat;lon;timestamp;P1;durP1;ratioP1;P2;durP2;ratioP2
23496;SDS011;11925;48.122;11.560;2023-04-03T00:01:18;7.95;;;5.10;;
23496;SDS011;11925;48.122;11.560;2023-04-03T00:03:47;7.10;;;5.30;;
23496;SDS011;11925;48.122;11.560;2023-04-03T00:06:16;7.38;;;4.90;;
23496;SDS011;11925;48.122;11.560;2023-04-03T00:08:45;8.98;;;5.38;;
23496;SDS011;11925;48.122;11.560;2023-04-03T00:11:13;6.90;;;4.72;;
23496;SDS011;11925;48.122;11.560;2023-04-03T00:13:43;6.22;;;4.68;;
23496;SDS011;11925;48.122;11.560;2023-04-03T00:16:11;6.95;;;4.65;;
23496;SDS011;11925;48.122;11.560;2023-04-03T00:18:40;7.18;;;4.50;;
23496;SDS011;11925;48.122;11.560;2023-04-03T00:21:10;6.75;;;4.82;;
23496;SDS011;11925;48.122;11.560;2023-04-03T00:23:40;6.57;;;4.68;;
23496;SDS011;11925;48.122;11.560;2023-04-03T00:26:09;5.80;;;4.60;;
23496;SDS011;11925;48.122;11.560;2023-04-03T00:28:39;7.18;;;4.72;;
23496;SDS011;11925;48.122;11.560;2023-04-03T00:31:07;7.57;;;4.53;;
23496;SDS011;11925;48.122;11.560;2023-04-03T00:33:35;7.10;;;4.60;;
23496;SDS011;11925;48.122;11.560;2023-04-03T00:36:07;5.32;;;4.30;;
23496;SDS011;11925;48.122;11.560;2023-04-03T00:38:38;8.45;;;4.60;;
23496;SDS011;11925;48.122;11.560;2023-04-03T00:41:07;6.43;;;4.32;;
23496;SDS011;11925;48.122;11.560;2023-04-03T00:43:35;8.05;;;4.57;;
23496;SDS011;11925;48.122;11.560;2023-04-03T00:46:04;5.60;;;4.00;;
23496;SDS011;11925;48.122;11.560;2023-04-03T00:48:34;6.63;;;4.63;;
23496;SDS011;11925;48.122;11.560;2023-04-03T00:51:07;5.63;;;4.15;;
23496;SDS011;11925;48.122;11.560;2023-04-03T00:53:41;6.47;;;4.50;;
23496;SDS011;11925;48.122;11.560;2023-04-03T00:56:18;5.75;;;4.00;;
23496;SDS011;11925;48.122;11.560;2023-04-03T00:58:50;4.80;;;3.75;;
23496;SDS011;11925;48.122;11.560;2023-04-03T01:01:23;6.28;;;4.03;;
23496;SDS011;11925;48.122;11.560;2023-04-03T01:03:54;5.57;;;4.05;;
23496;SDS011;11925;48.122;11.560;2023-04-03T01:06:24;5.43;;;4.10;;
23496;SDS011;11925;48.122;11.560;2023-04-03T01:09:04;7.70;;;4.32;;
23496;SDS011;11925;48.122;11.560;2023-04-03T01:11:33;5.63;;;4.10;;
23496;SDS011;11925;48.122;11.560;2023-04-03T01:14:01;6.05;;;4.18;;
23496;SDS011;11925;48.122;11.560;2023-04-03T01:16:32;6.03;;;4.27;;
23496;SDS011;11925;48.122;11.560;2023-04-03T01:19:01;5.88;;;4.13;;
23496;SDS011;11925;48.122;11.560;2023-04-03T01:24:34;6.43;;;4.47;;
23496;SDS011;11925;48.122;11.560;2023-04-03T01:27:08;5.93;;;3.97;;
23496;SDS011;11925;48.122;11.560;2023-04-03T01:29:39;5.32;;;3.67;;
23496;SDS011;11925;48.122;11.560;2023-04-03T01:32:11;5.90;;;4.10;;
23496;SDS011;11925;48.122;11.560;2023-04-03T01:34:40;5.38;;;4.00;;
23496;SDS011;11925;48.122;11.560;2023-04-03T01:37:09;5.80;;;3.75;;
23496;SDS011;11925;48.122;11.560;2023-04-03T01:39:38;5.20;;;4.03;;
23496;SDS011;11925;48.122;11.560;2023-04-03T01:42:06;5.88;;;3.80;;
23496;SDS011;11925;48.122;11.560;2023-04-03T01:44:38;6.57;;;4.00;;
23496;SDS011;11925;48.122;11.560;2023-04-03T01:47:07;4.88;;;3.97;;
23496;SDS011;11925;48.122;11.560;2023-04-03T01:49:38;5.35;;;4.07;;
23496;SDS011;11925;48.122;11.560;2023-04-03T01:52:07;6.05;;;4.13;;
23496;SDS011;11925;48.122;11.560;2023-04-03T01:54:36;4.28;;;3.72;;
23496;SDS011;11925;48.122;11.560;2023-04-03T01:57:04;5.97;;;4.30;;
23496;SDS011;11925;48.122;11.560;2023-04-03T01:59:33;4.93;;;4.00;;
23496;SDS011;11925;48.122;11.560;2023-04-03T02:02:02;7.00;;;4.82;;
23496;SDS011;11925;48.122;11.560;2023-04-03T02:04:30;5.32;;;4.25;;
23496;SDS011;11925;48.122;11.560;2023-04-03T02:07:00;4.68;;;3.92;;
23496;SDS011;11925;48.122;11.560;2023-04-03T02:09:28;6.20;;;4.20;;
23496;SDS011;11925;48.122;11.560;2023-04-03T02:11:57;6.35;;;4.18;;
23496;SDS011;11925;48.122;11.560;2023-04-03T02:14:25;6.15;;;4.63;;
23496;SDS011;11925;48.122;11.560;2023-04-03T02:16:54;5.45;;;4.03;;
23496;SDS011;11925;48.122;11.560;2023-04-03T02:19:22;6.05;;;4.10;;
23496;SDS011;11925;48.122;11.560;2023-04-03T02:21:51;6.07;;;4.22;;
23496;SDS011;11925;48.122;11.560;2023-04-03T02:24:20;7.90;;;4.78;;
23496;SDS011;11925;48.122;11.560;2023-04-03T02:26:49;5.53;;;4.25;;
23496;SDS011;11925;48.122;11.560;2023-04-03T02:29:18;5.03;;;3.95;;
23496;SDS011;11925;48.122;11.560;2023-04-03T02:31:46;6.55;;;4.20;;
23496;SDS011;11925;48.122;11.560;2023-04-03T02:34:15;5.28;;;4.38;;
23496;SDS011;11925;48.122;11.560;2023-04-03T02:36:45;5.20;;;3.92;;
23496;SDS011;11925;48.122;11.560;2023-04-03T02:39:14;4.68;;;3.78;;
23496;SDS011;11925;48.122;11.560;2023-04-03T02:41:45;5.63;;;3.90;;
23496;SDS011;11925;48.122;11.560;2023-04-03T02:44:18;5.88;;;4.05;;
23496;SDS011;11925;48.122;11.560;2023-04-03T02:46:47;4.68;;;3.67;;
23496;SDS011;11925;48.122;11.560;2023-04-03T02:49:16;4.57;;;3.95;;
23496;SDS011;11925;48.122;11.560;2023-04-03T02:51:44;5.15;;;3.60;;
23496;SDS011;11925;48.122;11.560;2023-04-03T02:54:14;4.90;;;3.65;;
23496;SDS011;11925;48.122;11.560;2023-04-03T02:56:48;4.78;;;3.97;;
23496;SDS011;11925;48.122;11.560;2023-04-03T02:59:16;5.68;;;3.97;;
23496;SDS011;11925;48.122;11.560;2023-04-03T03:01:45;5.65;;;3.30;;
23496;SDS011;11925;48.122;11.560;2023-04-03T03:04:13;4.00;;;3.13;;
23496;SDS011;11925;48.122;11.560;2023-04-03T03:06:42;4.10;;;3.25;;
23496;SDS011;11925;48.122;11.560;2023-04-03T03:09:10;4.50;;;3.28;;
23496;SDS011;11925;48.122;11.560;2023-04-03T03:11:41;4.75;;;3.47;;
23496;SDS011;11925;48.122;11.560;2023-04-03T03:14:11;4.65;;;3.42;;
23496;SDS011;11925;48.122;11.560;2023-04-03T03:16:39;4.95;;;2.97;;
23496;SDS011;11925;48.122;11.560;2023-04-03T03:19:07;4.90;;;3.10;;
23496;SDS011;11925;48.122;11.560;2023-04-03T03:21:36;5.18;;;3.50;;
23496;SDS011;11925;48.122;11.560;2023-04-03T03:24:05;3.65;;;2.70;;
23496;SDS011;11925;48.122;11.560;2023-04-03T03:26:34;4.63;;;3.00;;
23496;SDS011;11925;48.122;11.560;2023-04-03T03:29:03;5.10;;;2.92;;
23496;SDS011;11925;48.122;11.560;2023-04-03T03:31:33;4.18;;;3.08;;
23496;SDS011;11925;48.122;11.560;2023-04-03T03:34:01;5.05;;;2.67;;
23496;SDS011;11925;48.122;11.560;2023-04-03T03:36:30;4.35;;;3.25;;
23496;SDS011;11925;48.122;11.560;2023-04-03T03:38:59;4.65;;;3.13;;
23496;SDS011;11925;48.122;11.560;2023-04-03T03:41:28;3.28;;;2.75;;
23496;SDS011;11925;48.122;11.560;2023-04-03T03:43:56;3.42;;;2.53;;
23496;SDS011;11925;48.122;11.560;2023-04-03T03:46:27;3.90;;;3.03;;
23496;SDS011;11925;48.122;11.560;2023-04-03T03:48:57;4.22;;;2.65;;
23496;SDS011;11925;48.122;11.560;2023-04-03T03:51:25;4.80;;;2.58;;
23496;SDS011;11925;48.122;11.560;2023-04-03T03:53:54;3.60;;;2.80;;
23496;SDS011;11925;48.122;11.560;2023-04-03T03:56:23;4.15;;;2.60;;
23496;SDS011;11925;48.122;11.560;2023-04-03T03:58:52;4.18;;;2.67;;
23496;SDS011;11925;48.122;11.560;2023-04-03T04:01:22;3.70;;;2.78;;
23496;SDS011;11925;48.122;11.560;2023-04-03T04:03:51;4.18;;;2.88;;
23496;SDS011;11925;48.122;11.560;2023-04-03T04:06:26;5.05;;;2.80;;
23496;SDS011;11925;48.122;11.560;2023-04-03T04:08:57;4.40;;;2.55;;
23496;SDS011;11925;48.122;11.560;2023-04-03T04:11:26;3.33;;;2.65;;
23496;SDS011;11925;48.122;11.560;2023-04-03T04:13:55;4.15;;;2.85;;
23496;SDS011;11925;48.122;11.560;2023-04-03T04:16:26;4.30;;;3.13;;
23496;SDS011;11925;48.122;11.560;2023-04-03T04:18:57;4.60;;;2.80;;
23496;SDS011;11925;48.122;11.560;2023-04-03T04:21:27;3.05;;;2.53;;
23496;SDS011;11925;48.122;11.560;2023-04-03T04:23:56;4.00;;;2.58;;
23496;SDS011;11925;48.122;11.560;2023-04-03T04:26:24;3.15;;;2.63;;
23496;SDS011;11925;48.122;11.560;2023-04-03T04:28:53;4.22;;;2.75;;
23496;SDS011;11925;48.122;11.560;2023-04-03T04:31:21;3.40;;;2.45;;
23496;SDS011;11925;48.122;11.560;2023-04-03T04:33:51;3.70;;;2.42;;
23496;SDS011;11925;48.122;11.560;2023-04-03T04:36:19;3.92;;;2.30;;
23496;SDS011;11925;48.122;11.560;2023-04-03T04:38:49;3.10;;;2.30;;
23496;SDS011;11925;48.122;11.560;2023-04-03T04:41:21;3.72;;;2.55;;
23496;SDS011;11925;48.122;11.560;2023-04-03T04:43:51;3.40;;;2.63;;
23496;SDS011;11925;48.122;11.560;2023-04-03T04:46:20;3.78;;;2.47;;
23496;SDS011;11925;48.122;11.560;2023-04-03T04:48:53;4.22;;;2.70;;
23496;SDS011;11925;48.122;11.560;2023-04-03T04:51:23;3.83;;;2.65;;
23496;SDS011;11925;48.122;11.560;2023-04-03T04:53:52;4.03;;;2.70;;
23496;SDS011;11925;48.122;11.560;2023-04-03T04:56:22;3.85;;;2.30;;
23496;SDS011;11925;48.122;11.560;2023-04-03T04:58:54;4.18;;;2.85;;
23496;SDS011;11925;48.122;11.560;2023-04-03T05:01:24;4.18;;;2.47;;
23496;SDS011;11925;48.122;11.560;2023-04-03T05:04:13;4.68;;;2.70;;
23496;SDS011;11925;48.122;11.560;2023-04-03T05:06:44;4.28;;;2.45;;
23496;SDS011;11925;48.122;11.560;2023-04-03T05:09:18;3.80;;;2.40;;
23496;SDS011;11925;48.122;11.560;2023-04-03T05:11:48;3.50;;;2.45;;
23496;SDS011;11925;48.122;11.560;2023-04-03T05:14:20;3.65;;;2.40;;
23496;SDS011;11925;48.122;11.560;2023-04-03T05:16:48;3.75;;;2.50;;
23496;SDS011;11925;48.122;11.560;2023-04-03T05:19:21;2.90;;;2.22;;
23496;SDS011;11925;48.122;11.560;2023-04-03T05:21:50;3.95;;;2.40;;
23496;SDS011;11925;48.122;11.560;2023-04-03T05:24:21;4.38;;;2.72;;
23496;SDS011;11925;48.122;11.560;2023-04-03T05:26:49;4.40;;;2.83;;
23496;SDS011;11925;48.122;11.560;2023-04-03T05:29:18;4.55;;;2.63;;
23496;SDS011;11925;48.122;11.560;2023-04-03T05:31:48;3.28;;;2.33;;
23496;SDS011;11925;48.122;11.560;2023-04-03T05:34:17;3.97;;;2.53;;
23496;SDS011;11925;48.122;11.560;2023-04-03T05:36:48;3.95;;;2.80;;
23496;SDS011;11925;48.122;11.560;2023-04-03T05:39:17;4.32;;;2.45;;
23496;SDS011;11925;48.122;11.560;2023-04-03T05:41:48;3.88;;;2.33;;
23496;SDS011;11925;48.122;11.560;2023-04-03T05:44:17;3.50;;;2.50;;
23496;SDS011;11925;48.122;11.560;2023-04-03T05:46:46;5.22;;;3.03;;
23496;SDS011;11925;48.122;11.560;2023-04-03T05:49:15;3.03;;;2.45;;
23496;SDS011;11925;48.122;11.560;2023-04-03T05:51:43;3.67;;;2.50;;
23496;SDS011;11925;48.122;11.560;2023-04-03T05:54:28;5.00;;;2.78;;
23496;SDS011;11925;48.122;11.560;2023-04-03T05:57:16;3.47;;;2.40;;
23496;SDS011;11925;48.122;11.560;2023-04-03T05:59:45;4.63;;;2.80;;
23496;SDS011;11925;48.122;11.560;2023-04-03T06:02:15;4.18;;;2.72;;
23496;SDS011;11925;48.122;11.560;2023-04-03T06:04:46;3.88;;;2.88;;
23496;SDS011;11925;48.122;11.560;2023-04-03T06:07:16;3.92;;;2.67;;
23496;SDS011;11925;48.122;11.560;2023-04-03T06:09:48;4.47;;;2.63;;
23496;SDS011;11925;48.122;11.560;2023-04-03T06:12:19;3.65;;;2.70;;
23496;SDS011;11925;48.122;11.560;2023-04-03T06:14:47;4.55;;;2.70;;
23496;SDS011;11925;48.122;11.560;2023-04-03T06:17:16;4.07;;;2.35;;
23496;SDS011;11925;48.122;11.560;2023-04-03T06:19:46;3.05;;;2.42;;
23496;SDS011;11925;48.122;11.560;2023-04-03T06:22:15;3.95;;;2.70;;
23496;SDS011;11925;48.122;11.560;2023-04-03T06:24:45;4.13;;;2.75;;
23496;SDS011;11925;48.122;11.560;2023-04-03T06:27:13;5.10;;;3.17;;
23496;SDS011;11925;48.122;11.560;2023-04-03T06:29:43;4.00;;;2.67;;
23496;SDS011;11925;48.122;11.560;2023-04-03T06:32:12;5.60;;;2.88;;
23496;SDS011;11925;48.122;11.560;2023-04-03T06:34:40;5.28;;;2.97;;
23496;SDS011;11925;48.122;11.560;2023-04-03T06:37:10;4.53;;;2.75;;
23496;SDS011;11925;48.122;11.560;2023-04-03T06:39:41;4.78;;;3.10;;
23496;SDS011;11925;48.122;11.560;2023-04-03T06:42:09;6.03;;;3.25;;
23496;SDS011;11925;48.122;11.560;2023-04-03T06:44:47;4.53;;;2.97;;
23496;SDS011;11925;48.122;11.560;2023-04-03T06:47:16;4.82;;;2.83;;
23496;SDS011;11925;48.122;11.560;2023-04-03T06:49:45;3.63;;;2.95;;
23496;SDS011;11925;48.122;11.560;2023-04-03T06:52:13;4.32;;;3.50;;
23496;SDS011;11925;48.122;11.560;2023-04-03T06:54:41;4.22;;;3.00;;
23496;SDS011;11925;48.122;11.560;2023-04-03T06:57:10;4.50;;;2.58;;
23496;SDS011;11925;48.122;11.560;2023-04-03T06:59:38;4.68;;;2.85;;
23496;SDS011;11925;48.122;11.560;2023-04-03T07:02:09;4.38;;;2.50;;
23496;SDS011;11925;48.122;11.560;2023-04-03T07:04:39;4.00;;;2.50;;
23496;SDS011;11925;48.122;11.560;2023-04-03T07:07:07;4.25;;;3.03;;
23496;SDS011;11925;48.122;11.560;2023-04-03T07:09:36;3.70;;;2.60;;
23496;SDS011;11925;48.122;11.560;2023-04-03T07:12:04;5.07;;;3.05;;
23496;SDS011;11925;48.122;11.560;2023-04-03T07:14:32;5.82;;;3.00;;
23496;SDS011;11925;48.122;11.560;2023-04-03T07:17:01;5.53;;;3.00;;
23496;SDS011;11925;48.122;11.560;2023-04-03T07:19:30;4.45;;;2.88;;
23496;SDS011;11925;48.122;11.560;2023-04-03T07:21:59;4.88;;;2.97;;
23496;SDS011;11925;48.122;11.560;2023-04-03T07:24:27;4.00;;;2.85;;
23496;SDS011;11925;48.122;11.560;2023-04-03T07:26:55;4.88;;;2.63;;
23496;SDS011;11925;48.122;11.560;2023-04-03T07:29:24;4.20;;;2.47;;
23496;SDS011;11925;48.122;11.560;2023-04-03T07:31:52;4.20;;;3.08;;
23496;SDS011;11925;48.122;11.560;2023-04-03T07:34:21;4.53;;;2.55;;
23496;SDS011;11925;48.122;11.560;2023-04-03T07:36:51;6.05;;;2.83;;
23496;SDS011;11925;48.122;11.560;2023-04-03T07:39:19;5.35;;;2.92;;
23496;SDS011;11925;48.122;11.560;2023-04-03T07:41:48;5.80;;;3.15;;
23496;SDS011;11925;48.122;11.560;2023-04-03T07:44:16;4.55;;;3.30;;
23496;SDS011;11925;48.122;11.560;2023-04-03T07:46:45;4.90;;;3.28;;
23496;SDS011;11925;48.122;11.560;2023-04-03T07:49:13;3.90;;;2.95;;
23496;SDS011;11925;48.122;11.560;2023-04-03T07:51:43;4.80;;;3.00;;
23496;SDS011;11925;48.122;11.560;2023-04-03T07:54:12;4.75;;;3.15;;
23496;SDS011;11925;48.122;11.560;2023-04-03T07:56:41;6.85;;;3.50;;
23496;SDS011;11925;48.122;11.560;2023-04-03T07:59:10;5.28;;;3.78;;
23496;SDS011;11925;48.122;11.560;2023-04-03T08:01:38;5.15;;;3.13;;
23496;SDS011;11925;48.122;11.560;2023-04-03T08:04:07;5.72;;;3.80;;
23496;SDS011;11925;48.122;11.560;2023-04-03T08:06:35;6.93;;;3.80;;
23496;SDS011;11925;48.122;11.560;2023-04-03T08:09:14;6.93;;;3.83;;
23496;SDS011;11925;48.122;11.560;2023-04-03T08:11:43;7.50;;;3.70;;
23496;SDS011;11925;48.122;11.560;2023-04-03T08:14:12;6.90;;;3.83;;
23496;SDS011;11925;48.122;11.560;2023-04-03T08:16:44;6.32;;;3.65;;
23496;SDS011;11925;48.122;11.560;2023-04-03T08:19:13;6.28;;;3.67;;
23496;SDS011;11925;48.122;11.560;2023-04-03T08:21:51;7.30;;;3.70;;
23496;SDS011;11925;48.122;11.560;2023-04-03T08:24:22;5.63;;;4.28;;
23496;SDS011;11925;48.122;11.560;2023-04-03T08:26:50;6.30;;;3.72;;
23496;SDS011;11925;48.122;11.560;2023-04-03T08:29:18;5.30;;;4.30;;
23496;SDS011;11925;48.122;11.560;2023-04-03T08:31:48;7.47;;;4.32;;
23496;SDS011;11925;48.122;11.560;2023-04-03T08:34:17;5.88;;;3.90;;
23496;SDS011;11925;48.122;11.560;2023-04-03T08:36:46;6.97;;;3.92;;
23496;SDS011;11925;48.122;11.560;2023-04-03T08:39:14;5.90;;;4.00;;
23496;SDS011;11925;48.122;11.560;2023-04-03T08:41:44;6.68;;;3.95;;
23496;SDS011;11925;48.122;11.560;2023-04-03T08:44:15;6.88;;;5.43;;
23496;SDS011;11925;48.122;11.560;2023-04-03T08:46:54;6.85;;;4.53;;
23496;SDS011;11925;48.122;11.560;2023-04-03T08:49:31;6.05;;;4.53;;
23496;SDS011;11925;48.122;11.560;2023-04-03T08:52:02;7.45;;;4.97;;
23496;SDS011;11925;48.122;11.560;2023-04-03T08:54:37;8.55;;;4.03;;
23496;SDS011;11925;48.122;11.560;2023-04-03T08:57:16;6.63;;;4.13;;
23496;SDS011;11925;48.122;11.560;2023-04-03T08:59:47;5.40;;;4.30;;
23496;SDS011;11925;48.122;11.560;2023-04-03T09:02:21;6.45;;;4.13;;
23496;SDS011;11925;48.122;11.560;2023-04-03T09:04:53;6.72;;;4.75;;
23496;SDS011;11925;48.122;11.560;2023-04-03T09:07:25;11.35;;;4.93;;
23496;SDS011;11925;48.122;11.560;2023-04-03T09:10:00;31.38;;;5.47;;
23496;SDS011;11925;48.122;11.560;2023-04-03T09:12:34;33.50;;;5.28;;
23496;SDS011;11925;48.122;11.560;2023-04-03T09:15:09;37.60;;;5.68;;
23496;SDS011;11925;48.122;11.560;2023-04-03T09:20:21;24.75;;;5.22;;
23496;SDS011;11925;48.122;11.560;2023-04-03T09:22:57;19.30;;;4.47;;
23496;SDS011;11925;48.122;11.560;2023-04-03T09:25:27;18.45;;;5.10;;
23496;SDS011;11925;48.122;11.560;2023-04-03T09:28:02;9.90;;;4.18;;
23496;SDS011;11925;48.122;11.560;2023-04-03T09:30:36;10.02;;;5.03;;
23496;SDS011;11925;48.122;11.560;2023-04-03T09:33:05;7.15;;;3.90;;
23496;SDS011;11925;48.122;11.560;2023-04-03T09:35:34;5.75;;;3.75;;
23496;SDS011;11925;48.122;11.560;2023-04-03T09:38:15;6.35;;;4.07;;
23496;SDS011;11925;48.122;11.560;2023-04-03T09:40:46;5.55;;;4.07;;
23496;SDS011;11925;48.122;11.560;2023-04-03T09:43:27;5.47;;;4.10;;
23496;SDS011;11925;48.122;11.560;2023-04-03T09:46:18;5.35;;;3.60;;
23496;SDS011;11925;48.122;11.560;2023-04-03T09:48:55;5.28;;;3.90;;
23496;SDS011;11925;48.122;11.560;2023-04-03T09:51:34;5.28;;;3.88;;
23496;SDS011;11925;48.122;11.560;2023-04-03T09:54:23;6.20;;;4.07;;
23496;SDS011;11925;48.122;11.560;2023-04-03T09:57:06;5.03;;;3.92;;
23496;SDS011;11925;48.122;11.560;2023-04-03T09:59:46;6.70;;;3.78;;
23496;SDS011;11925;48.122;11.560;2023-04-03T10:02:32;5.53;;;4.30;;
23496;SDS011;11925;48.122;11.560;2023-04-03T10:05:04;5.45;;;3.65;;
23496;SDS011;11925;48.122;11.560;2023-04-03T10:08:07;4.10;;;3.50;;
23496;SDS011;11925;48.122;11.560;2023-04-03T10:10:37;7.65;;;3.63;;
23496;SDS011;11925;48.122;11.560;2023-04-03T10:13:07;6.70;;;3.45;;
23496;SDS011;11925;48.122;11.560;2023-04-03T10:15:48;5.07;;;3.63;;
23496;SDS011;11925;48.122;11.560;2023-04-03T10:18:27;7.50;;;3.90;;
23496;SDS011;11925;48.122;11.560;2023-04-03T10:21:02;4.93;;;3.08;;
23496;SDS011;11925;48.122;11.560;2023-04-03T10:23:47;5.22;;;3.60;;
23496;SDS011;11925;48.122;11.560;2023-04-03T10:26:25;5.63;;;3.83;;
23496;SDS011;11925;48.122;11.560;2023-04-03T10:29:02;6.63;;;3.50;;
23496;SDS011;11925;48.122;11.560;2023-04-03T10:31:40;5.35;;;3.45;;
23496;SDS011;11925;48.122;11.560;2023-04-03T10:34:14;6.07;;;3.70;;
23496;SDS011;11925;48.122;11.560;2023-04-03T10:36:49;5.38;;;3.67;;
23496;SDS011;11925;48.122;11.560;2023-04-03T10:39:29;6.72;;;4.07;;
23496;SDS011;11925;48.122;11.560;2023-04-03T10:42:05;8.23;;;3.55;;
23496;SDS011;11925;48.122;11.560;2023-04-03T10:44:52;6.45;;;3.53;;
23496;SDS011;11925;48.122;11.560;2023-04-03T10:47:39;4.82;;;3.58;;
23496;SDS011;11925;48.122;11.560;2023-04-03T10:50:20;6.30;;;3.80;;
23496;SDS011;11925;48.122;11.560;2023-04-03T10:55:28;8.65;;;3.47;;
23496;SDS011;11925;48.122;11.560;2023-04-03T10:58:02;5.82;;;3.60;;
23496;SDS011;11925;48.122;11.560;2023-04-03T11:00:35;5.75;;;3.20;;
23496;SDS011;11925;48.122;11.560;2023-04-03T11:03:10;5.63;;;3.55;;
23496;SDS011;11925;48.122;11.560;2023-04-03T11:05:42;5.70;;;3.20;;
23496;SDS011;11925;48.122;11.560;2023-04-03T11:08:15;4.63;;;2.63;;
23496;SDS011;11925;48.122;11.560;2023-04-03T11:10:49;5.82;;;2.85;;
23496;SDS011;11925;48.122;11.560;2023-04-03T11:13:19;5.68;;;3.20;;
23496;SDS011;11925;48.122;11.560;2023-04-03T11:15:53;5.10;;;3.28;;
23496;SDS011;11925;48.122;11.560;2023-04-03T11:18:26;3.95;;;2.85;;
23496;SDS011;11925;48.122;11.560;2023-04-03T11:20:59;6.05;;;3.15;;
23496;SDS011;11925;48.122;11.560;2023-04-03T11:23:32;3.92;;;2.83;;
23496;SDS011;11925;48.122;11.560;2023-04-03T11:26:16;5.18;;;2.80;;
23496;SDS011;11925;48.122;11.560;2023-04-03T11:28:51;4.35;;;2.83;;
23496;SDS011;11925;48.122;11.560;2023-04-03T11:31:25;6.70;;;3.00;;
23496;SDS011;11925;48.122;11.560;2023-04-03T11:34:05;4.85;;;2.58;;
23496;SDS011;11925;48.122;11.560;2023-04-03T11:36:44;4.28;;;2.50;;
23496;SDS011;11925;48.122;11.560;2023-04-03T11:39:18;4.22;;;2.38;;
23496;SDS011;11925;48.122;11.560;2023-04-03T11:41:51;5.45;;;3.15;;
23496;SDS011;11925;48.122;11.560;2023-04-03T11:44:38;4.72;;;2.60;;
23496;SDS011;11925;48.122;11.560;2023-04-03T11:47:07;7.03;;;2.38;;
23496;SDS011;11925;48.122;11.560;2023-04-03T11:49:54;4.10;;;2.40;;
23496;SDS011;11925;48.122;11.560;2023-04-03T11:58:27;4.38;;;1.92;;
23496;SDS011;11925;48.122;11.560;2023-04-03T12:00:58;3.93;;;2.20;;
23496;SDS011;11925;48.122;11.560;2023-04-03T12:09:21;4.20;;;2.13;;
23496;SDS011;11925;48.122;11.560;2023-04-03T12:11:56;3.58;;;2.35;;
23496;SDS011;11925;48.122;11.560;2023-04-03T12:14:28;3.17;;;2.03;;
23496;SDS011;11925;48.122;11.560;2023-04-03T12:16:57;3.60;;;2.40;;
23496;SDS011;11925;48.122;11.560;2023-04-03T12:19:34;4.38;;;2.20;;
23496;SDS011;11925;48.122;11.560;2023-04-03T12:22:12;5.63;;;2.58;;
23496;SDS011;11925;48.122;11.560;2023-04-03T12:24:43;3.40;;;2.25;;
23496;SDS011;11925;48.122;11.560;2023-04-03T12:27:29;5.22;;;2.35;;
23496;SDS011;11925;48.122;11.560;2023-04-03T12:30:07;4.43;;;2.35;;
23496;SDS011;11925;48.122;11.560;2023-04-03T12:33:11;3.90;;;2.25;;
23496;SDS011;11925;48.122;11.560;2023-04-03T12:35:51;3.90;;;1.90;;
23496;SDS011;11925;48.122;11.560;2023-04-03T12:38:39;4.72;;;2.10;;
23496;SDS011;11925;48.122;11.560;2023-04-03T12:41:28;5.53;;;2.33;;
23496;SDS011;11925;48.122;11.560;2023-04-03T12:44:07;4.63;;;1.92;;
23496;SDS011;11925;48.122;11.560;2023-04-03T12:46:50;3.65;;;1.90;;
23496;SDS011;11925;48.122;11.560;2023-04-03T12:49:26;3.10;;;1.63;;
23496;SDS011;11925;48.122;11.560;2023-04-03T12:52:03;4.03;;;1.92;;
23496;SDS011;11925;48.122;11.560;2023-04-03T12:54:41;2.65;;;1.90;;
23496;SDS011;11925;48.122;11.560;2023-04-03T12:57:16;3.85;;;1.70;;
23496;SDS011;11925;48.122;11.560;2023-04-03T12:59:45;2.47;;;1.65;;
23496;SDS011;11925;48.122;11.560;2023-04-03T13:02:17;4.28;;;2.10;;
23496;SDS011;11925;48.122;11.560;2023-04-03T13:04:51;3.53;;;1.80;;
23496;SDS011;11925;48.122;11.560;2023-04-03T13:07:22;3.60;;;1.85;;
23496;SDS011;11925;48.122;11.560;2023-04-03T13:09:56;3.05;;;1.60;;
23496;SDS011;11925;48.122;11.560;2023-04-03T13:12:26;2.17;;;1.80;;
23496;SDS011;11925;48.122;11.560;2023-04-03T13:14:58;3.67;;;1.70;;
23496;SDS011;11925;48.122;11.560;2023-04-03T13:17:30;2.53;;;1.75;;
23496;SDS011;11925;48.122;11.560;2023-04-03T13:20:09;2.97;;;1.77;;
23496;SDS011;11925;48.122;11.560;2023-04-03T13:22:39;3.28;;;1.60;;
23496;SDS011;11925;48.122;11.560;2023-04-03T13:25:14;3.40;;;1.70;;
23496;SDS011;11925;48.122;11.560;2023-04-03T13:27:44;4.15;;;1.80;;
23496;SDS011;11925;48.122;11.560;2023-04-03T13:30:18;3.40;;;1.50;;
23496;SDS011;11925;48.122;11.560;2023-04-03T13:32:50;2.25;;;1.60;;
23496;SDS011;11925;48.122;11.560;2023-04-03T13:35:30;2.67;;;1.60;;
23496;SDS011;11925;48.122;11.560;2023-04-03T13:38:02;3.80;;;1.60;;
23496;SDS011;11925;48.122;11.560;2023-04-03T13:40:35;3.47;;;1.80;;
23496;SDS011;11925;48.122;11.560;2023-04-03T13:43:19;3.05;;;1.60;;
23496;SDS011;11925;48.122;11.560;2023-04-03T13:46:02;3.38;;;1.80;;
23496;SDS011;11925;48.122;11.560;2023-04-03T13:48:39;2.67;;;1.48;;
23496;SDS011;11925;48.122;11.560;2023-04-03T13:51:19;2.75;;;1.65;;
23496;SDS011;11925;48.122;11.560;2023-04-03T13:53:51;4.72;;;1.92;;
23496;SDS011;11925;48.122;11.560;2023-04-03T13:56:23;4.10;;;1.67;;
23496;SDS011;11925;48.122;11.560;2023-04-03T13:59:18;2.53;;;1.60;;
23496;SDS011;11925;48.122;11.560;2023-04-03T14:01:50;3.90;;;1.63;;
23496;SDS011;11925;48.122;11.560;2023-04-03T14:04:22;3.83;;;1.58;;
23496;SDS011;11925;48.122;11.560;2023-04-03T14:06:54;3.67;;;1.70;;
23496;SDS011;11925;48.122;11.560;2023-04-03T14:09:23;4.57;;;2.03;;
23496;SDS011;11925;48.122;11.560;2023-04-03T14:11:55;2.60;;;1.60;;
23496;SDS011;11925;48.122;11.560;2023-04-03T14:14:29;2.70;;;1.42;;
23496;SDS011;11925;48.122;11.560;2023-04-03T14:17:00;4.28;;;1.48;;
23496;SDS011;11925;48.122;11.560;2023-04-03T14:19:31;2.55;;;1.90;;
23496;SDS011;11925;48.122;11.560;2023-04-03T14:22:07;3.38;;;1.65;;
23496;SDS011;11925;48.122;11.560;2023-04-03T14:24:42;4.80;;;1.83;;
23496;SDS011;11925;48.122;11.560;2023-04-03T14:27:15;3.60;;;1.60;;
23496;SDS011;11925;48.122;11.560;2023-04-03T14:29:46;2.72;;;1.33;;
23496;SDS011;11925;48.122;11.560;2023-04-03T14:32:15;2.67;;;1.58;;
23496;SDS011;11925;48.122;11.560;2023-04-03T14:34:45;4.60;;;1.88;;
23496;SDS011;11925;48.122;11.560;2023-04-03T14:37:15;3.55;;;1.45;;
23496;SDS011;11925;48.122;11.560;2023-04-03T14:39:44;2.90;;;1.40;;
23496;SDS011;11925;48.122;11.560;2023-04-03T14:42:16;2.75;;;1.77;;
23496;SDS011;11925;48.122;11.560;2023-04-03T14:44:46;2.83;;;1.45;;
23496;SDS011;11925;48.122;11.560;2023-04-03T14:47:17;2.70;;;1.67;;
23496;SDS011;11925;48.122;11.560;2023-04-03T14:49:58;3.50;;;1.50;;
23496;SDS011;11925;48.122;11.560;2023-04-03T14:52:28;3.97;;;1.85;;
23496;SDS011;11925;48.122;11.560;2023-04-03T14:55:00;4.05;;;1.75;;
23496;SDS011;11925;48.122;11.560;2023-04-03T14:57:30;2.95;;;1.50;;
23496;SDS011;11925;48.122;11.560;2023-04-03T14:59:59;2.95;;;1.50;;
23496;SDS011;11925;48.122;11.560;2023-04-03T15:02:29;2.22;;;1.50;;
23496;SDS011;11925;48.122;11.560;2023-04-03T15:05:02;4.65;;;1.50;;
23496;SDS011;11925;48.122;11.560;2023-04-03T15:07:32;3.42;;;1.35;;
23496;SDS011;11925;48.122;11.560;2023-04-03T15:10:05;3.03;;;1.60;;
23496;SDS011;11925;48.122;11.560;2023-04-03T15:12:45;3.58;;;1.70;;
23496;SDS011;11925;48.122;11.560;2023-04-03T15:15:16;3.00;;;1.50;;
23496;SDS011;11925;48.122;11.560;2023-04-03T15:17:46;2.38;;;1.50;;
23496;SDS011;11925;48.122;11.560;2023-04-03T15:20:21;4.93;;;1.60;;
23496;SDS011;11925;48.122;11.560;2023-04-03T15:22:51;1.98;;;1.30;;